createdAt,value
2023-05-16T00:01:34.347Z,10.93
2023-05-16T00:06:38.463Z,10.89
2023-05-16T00:11:42.628Z,10.78
2023-05-16T00:16:46.804Z,10.66
2023-05-16T00:21:50.936Z,10.57
2023-05-16T00:26:55.094Z,10.50
2023-05-16T00:31:59.332Z,10.40
2023-05-16T00:37:03.413Z,10.42
2023-05-16T00:42:07.563Z,10.35
2023-05-16T00:47:11.770Z,10.29
2023-05-16T00:52:15.935Z,10.25
2023-05-16T01:02:24.270Z,10.18
2023-05-16T01:07:28.390Z,10.12
2023-05-16T01:12:32.560Z,10.15
2023-05-16T01:17:36.774Z,10.07
2023-05-16T01:22:40.893Z,10.07
2023-05-16T01:27:45.017Z,10.10
2023-05-16T01:32:49.287Z,10.09
2023-05-16T01:37:51.455Z,10.04
2023-05-16T01:42:55.601Z,9.92
2023-05-16T01:47:59.863Z,9.93
2023-05-16T01:53:03.974Z,9.77
2023-05-16T01:58:08.095Z,9.42
2023-05-16T02:03:12.464Z,9.12
2023-05-16T02:08:16.422Z,8.96
2023-05-16T02:13:20.587Z,8.81
2023-05-16T02:18:24.758Z,8.78
2023-05-16T02:23:28.895Z,8.78
2023-05-16T02:28:33.089Z,8.81
2023-05-16T02:33:37.219Z,8.67
2023-05-16T02:38:41.410Z,8.74
2023-05-16T02:43:47.027Z,8.72
2023-05-16T02:48:49.741Z,8.72
2023-05-16T02:53:53.898Z,8.63
2023-05-16T02:58:58.021Z,8.62
2023-05-16T03:04:02.293Z,8.58
2023-05-16T03:09:06.340Z,8.54
2023-05-16T03:14:10.532Z,8.57
2023-05-16T03:19:14.738Z,8.59
2023-05-16T03:24:18.864Z,8.64
2023-05-16T03:29:23.028Z,8.63
2023-05-16T03:34:27.200Z,8.68
2023-05-16T03:39:31.325Z,8.67
2023-05-16T03:44:35.518Z,8.66
2023-05-16T03:49:39.708Z,8.67
2023-05-16T03:54:43.863Z,8.58
2023-05-16T03:59:47.968Z,8.46
2023-05-16T04:04:52.150Z,8.47
2023-05-16T04:09:56.339Z,8.45
2023-05-16T04:15:00.492Z,8.35
2023-05-16T04:20:04.772Z,8.31
2023-05-16T04:25:08.825Z,8.29
2023-05-16T04:30:12.944Z,8.20
2023-05-16T04:35:17.145Z,8.14
2023-05-16T04:40:21.266Z,8.12
2023-05-16T04:45:25.626Z,7.96
2023-05-16T04:50:29.604Z,7.84
2023-05-16T04:55:33.836Z,7.85
2023-05-16T05:00:37.934Z,7.81
2023-05-16T05:05:42.128Z,7.83
2023-05-16T05:10:46.284Z,7.84
2023-05-16T05:15:50.421Z,7.93
2023-05-16T05:20:54.571Z,7.98
2023-05-16T05:25:58.738Z,8.00
2023-05-16T05:31:02.884Z,8.01
2023-05-16T05:36:07.046Z,8.07
2023-05-16T05:41:11.244Z,8.23
2023-05-16T05:51:19.531Z,8.63
2023-05-16T05:56:23.714Z,8.76
2023-05-16T06:01:27.878Z,8.80
2023-05-16T06:06:31.993Z,8.96
2023-05-16T06:11:36.227Z,8.91
2023-05-16T06:16:40.485Z,8.96
2023-05-16T06:21:44.553Z,9.09
2023-05-16T06:26:48.697Z,9.50
2023-05-16T06:31:52.917Z,9.91
2023-05-16T06:36:57.002Z,10.21
2023-05-16T06:42:01.136Z,10.18
2023-05-16T06:47:05.504Z,10.07
2023-05-16T06:52:09.497Z,10.20
2023-05-16T06:57:13.625Z,10.18
2023-05-16T07:02:17.849Z,10.37
2023-05-16T07:07:20.083Z,10.14
2023-05-16T07:12:24.239Z,10.17
2023-05-16T07:17:28.407Z,10.36
2023-05-16T07:22:32.546Z,10.48
2023-05-16T07:27:36.739Z,10.67
2023-05-16T07:32:40.930Z,10.72
2023-05-16T07:37:45.048Z,10.57
2023-05-16T07:42:49.185Z,10.75
2023-05-16T07:47:53.455Z,11.32
2023-05-16T07:52:57.496Z,11.51
2023-05-16T07:58:01.674Z,11.45
2023-05-16T08:03:05.935Z,11.51
2023-05-16T08:08:10.032Z,11.73
2023-05-16T08:13:14.160Z,11.72
2023-05-16T08:18:20.693Z,12.08
2023-05-16T08:23:22.460Z,11.85
2023-05-16T08:28:26.716Z,11.90
2023-05-16T08:33:30.790Z,12.49
2023-05-16T08:38:34.969Z,12.46
2023-05-16T08:43:39.154Z,12.10
2023-05-16T08:48:43.314Z,12.26
2023-05-16T08:53:47.457Z,12.60
2023-05-16T08:58:51.609Z,12.76
2023-05-16T09:03:55.793Z,12.39
2023-05-16T09:08:59.948Z,12.60
2023-05-16T09:14:04.091Z,12.92
2023-05-16T09:19:08.334Z,13.36
2023-05-16T09:24:12.445Z,13.46
2023-05-16T09:29:16.585Z,13.85
2023-05-16T09:34:20.753Z,13.67
2023-05-16T09:39:24.929Z,13.74
2023-05-16T09:44:29.107Z,13.50
2023-05-16T09:49:33.482Z,13.19
2023-05-16T09:54:37.386Z,13.45
2023-05-16T09:59:41.575Z,13.68
2023-05-16T10:04:45.707Z,13.29
2023-05-16T10:09:49.867Z,13.58
2023-05-16T10:14:53.999Z,13.64
2023-05-16T10:19:58.160Z,13.78
2023-05-16T10:25:02.327Z,13.95
2023-05-16T10:30:06.515Z,14.26
2023-05-16T10:35:10.719Z,14.09
2023-05-16T10:40:14.798Z,13.93
2023-05-16T10:45:18.981Z,14.32
2023-05-16T10:50:23.133Z,13.96
2023-05-16T10:55:27.523Z,13.61
2023-05-16T11:00:31.453Z,13.75
2023-05-16T11:05:35.622Z,13.68
2023-05-16T11:10:39.764Z,13.75
2023-05-16T11:15:43.928Z,14.57
2023-05-16T11:20:48.100Z,14.97
2023-05-16T11:25:52.294Z,14.82
2023-05-16T11:30:56.436Z,14.38
2023-05-16T11:36:11.481Z,14.88
2023-05-16T11:41:04.760Z,15.22
2023-05-16T11:46:08.952Z,15.10
2023-05-16T11:51:13.103Z,14.65
2023-05-16T11:56:17.194Z,14.35
2023-05-16T12:01:21.348Z,13.91
2023-05-16T12:06:25.551Z,13.37
2023-05-16T12:11:29.702Z,13.85
2023-05-16T12:16:33.953Z,14.22
2023-05-16T12:21:38.020Z,14.54
2023-05-16T12:26:42.223Z,14.53
2023-05-16T12:31:46.379Z,15.36
2023-05-16T12:36:48.616Z,14.80
2023-05-16T12:41:52.761Z,14.36
2023-05-16T12:46:56.960Z,14.38
2023-05-16T12:52:01.107Z,14.58
2023-05-16T12:57:05.268Z,14.47
2023-05-16T13:02:09.508Z,14.56
2023-05-16T13:07:11.684Z,14.73
2023-05-16T13:12:15.858Z,14.52
2023-05-16T13:17:19.997Z,14.28
2023-05-16T13:22:24.170Z,14.10
2023-05-16T13:27:28.338Z,13.97
2023-05-16T13:32:32.513Z,13.95
2023-05-16T13:37:36.613Z,14.05
2023-05-16T13:42:40.778Z,14.16
2023-05-16T13:47:46.740Z,14.14
2023-05-16T13:52:49.112Z,13.91
2023-05-16T13:57:53.303Z,13.68
2023-05-16T14:02:57.463Z,14.41
2023-05-16T14:08:01.584Z,15.38
2023-05-16T14:13:05.733Z,15.41
2023-05-16T14:18:09.926Z,15.10
2023-05-16T14:23:14.068Z,15.54
2023-05-16T14:28:18.217Z,15.13
2023-05-16T14:33:22.424Z,15.52
2023-05-16T14:38:26.585Z,16.14
2023-05-16T14:43:30.709Z,15.84
2023-05-16T14:48:34.851Z,15.14
2023-05-16T14:53:39.000Z,14.79
2023-05-16T14:58:43.222Z,14.53
2023-05-16T15:03:55.564Z,14.52
2023-05-16T15:08:51.552Z,14.37
2023-05-16T15:13:55.684Z,14.38
2023-05-16T15:18:59.934Z,14.04
2023-05-16T15:24:04.092Z,13.89
2023-05-16T15:29:08.168Z,14.07
2023-05-16T15:34:12.333Z,13.96
2023-05-16T15:39:16.639Z,13.92
2023-05-16T15:44:20.675Z,13.80
2023-05-16T15:49:24.765Z,13.71
2023-05-16T15:54:29.747Z,13.48
2023-05-16T15:59:33.110Z,13.20
2023-05-16T16:04:37.270Z,13.40
2023-05-16T16:09:41.428Z,13.68
2023-05-16T16:14:45.583Z,13.78
2023-05-16T16:19:49.739Z,13.96
2023-05-16T16:24:53.920Z,14.29
2023-05-16T16:29:58.101Z,14.16
2023-05-16T16:35:02.243Z,13.95
2023-05-16T16:40:06.357Z,13.90
2023-05-16T16:45:10.575Z,13.83
2023-05-16T16:50:14.689Z,13.57
2023-05-16T16:55:18.866Z,13.22
2023-05-16T17:00:23.028Z,13.08
2023-05-16T17:05:27.474Z,12.96
2023-05-16T17:10:31.340Z,12.86
2023-05-16T17:15:35.527Z,12.69
2023-05-16T17:20:39.648Z,12.61
2023-05-16T17:25:43.834Z,12.43
2023-05-16T17:30:47.991Z,12.34
2023-05-16T17:35:52.136Z,12.26
2023-05-16T17:40:56.313Z,12.22
2023-05-16T17:46:00.518Z,12.11
2023-05-16T17:51:04.622Z,12.05
2023-05-16T17:56:08.782Z,11.99
2023-05-16T18:01:12.981Z,11.91
2023-05-16T18:06:17.247Z,11.83
2023-05-16T18:11:21.281Z,11.77
2023-05-16T18:16:25.445Z,11.72
2023-05-16T18:21:29.588Z,11.69
2023-05-16T18:26:33.809Z,11.65
2023-05-16T18:31:37.913Z,11.58
2023-05-16T18:36:40.157Z,11.56
2023-05-16T18:46:48.517Z,11.45
2023-05-16T18:51:52.669Z,11.39
2023-05-16T18:56:56.868Z,11.37
2023-05-16T19:02:01.028Z,11.29
2023-05-16T19:07:06.657Z,11.22
2023-05-16T19:12:09.325Z,11.17
2023-05-16T19:17:13.504Z,11.12
2023-05-16T19:22:17.653Z,11.09
2023-05-16T19:27:21.820Z,11.03
2023-05-16T19:32:26.047Z,10.97
2023-05-16T19:37:30.108Z,10.98
2023-05-16T19:42:34.285Z,10.95
2023-05-16T19:47:38.609Z,10.92
2023-05-16T19:52:42.641Z,10.90
2023-05-16T19:57:46.814Z,10.86
2023-05-16T20:02:51.048Z,10.83
2023-05-16T20:07:55.071Z,10.81
2023-05-16T20:12:59.268Z,10.77
2023-05-16T20:18:03.541Z,10.71
2023-05-16T20:23:07.610Z,10.60
2023-05-16T20:28:11.787Z,10.47
2023-05-16T20:33:15.939Z,10.32
2023-05-16T20:38:20.097Z,10.24
2023-05-16T20:48:28.456Z,10.20
2023-05-16T20:53:32.577Z,10.12
2023-05-16T20:58:36.765Z,10.09
2023-05-16T21:03:40.874Z,10.08
2023-05-16T21:08:45.036Z,10.11
2023-05-16T21:13:49.182Z,10.16
2023-05-16T21:18:53.528Z,10.20
2023-05-16T21:23:57.505Z,10.19
2023-05-16T21:29:01.658Z,10.17
2023-05-16T21:34:05.920Z,10.12
2023-05-16T21:39:09.969Z,10.06
2023-05-16T21:44:14.133Z,10.01
2023-05-16T21:49:18.319Z,9.94
2023-05-16T21:54:22.419Z,9.87
2023-05-16T21:59:26.625Z,9.81
2023-05-16T22:04:30.870Z,9.73
2023-05-16T22:09:34.935Z,9.66
2023-05-16T22:14:39.107Z,9.55
2023-05-16T22:19:43.362Z,9.44
2023-05-16T22:24:47.434Z,9.33
2023-05-16T22:29:51.577Z,9.19
2023-05-16T22:34:55.759Z,9.07
2023-05-16T22:40:00.007Z,9.03
2023-05-16T22:45:04.087Z,8.93
2023-05-16T22:50:08.242Z,8.86
2023-05-16T22:55:12.397Z,8.72
2023-05-16T23:00:16.534Z,8.56
2023-05-16T23:05:20.730Z,8.50
2023-05-16T23:10:24.845Z,8.39
2023-05-16T23:15:29.265Z,8.28
2023-05-16T23:20:33.222Z,8.07
2023-05-16T23:25:37.369Z,7.84
2023-05-16T23:30:41.562Z,7.68
2023-05-16T23:35:45.706Z,7.52
2023-05-16T23:40:49.836Z,7.43
2023-05-16T23:45:54.018Z,7.30
2023-05-16T23:50:58.170Z,7.18
2023-05-16T23:56:02.325Z,7.07
